sensor_id;sensor_type;location;lat;lon;timestamp;pressure;altitude;pressure_sealevel;temperature;humidity
57900;BME280;60605;53.716;19.940;2023-04-10T00:03:26;101332.36;;;5.07;100.00
57900;BME280;60605;53.716;19.940;2023-04-10T00:08:29;101327.48;;;5.00;100.00
57900;BME280;60605;53.716;19.940;2023-04-10T00:13:31;101325.52;;;4.91;100.00
57900;BME280;60605;53.716;19.940;2023-04-10T00:18:33;101323.09;;;4.82;100.00
57900;BME280;60605;53.716;19.940;2023-04-10T00:23:36;101321.08;;;4.71;100.00
57900;BME280;60605;53.716;19.940;2023-04-10T00:28:37;101320.96;;;4.61;100.00
57900;BME280;60605;53.716;19.940;2023-04-10T00:33:39;101321.53;;;4.51;100.00
57900;BME280;60605;53.716;19.940;2023-04-10T00:38:41;101318.40;;;4.41;100.00
57900;BME280;60605;53.716;19.940;2023-04-10T00:43:43;101321.94;;;4.32;100.00
57900;BME280;60605;53.716;19.940;2023-04-10T00:48:45;101319.66;;;4.23;100.00
57900;BME280;60605;53.716;19.940;2023-04-10T00:53:48;101315.88;;;4.15;100.00
57900;BME280;60605;53.716;19.940;2023-04-10T00:58:55;101313.38;;;4.09;100.00
57900;BME280;60605;53.716;19.940;2023-04-10T01:03:57;101314.88;;;4.01;100.00
57900;BME280;60605;53.716;19.940;2023-04-10T01:14:41;101304.98;;;3.89;100.00
57900;BME280;60605;53.716;19.940;2023-04-10T01:20:00;101298.38;;;3.84;100.00
57900;BME280;60605;53.716;19.940;2023-04-10T01:30:23;101301.74;;;3.80;100.00
57900;BME280;60605;53.716;19.940;2023-04-10T01:35:27;101306.70;;;3.80;100.00
57900;BME280;60605;53.716;19.940;2023-04-10T01:40:31;101309.85;;;3.81;100.00
57900;BME280;60605;53.716;19.940;2023-04-10T01:45:37;101312.67;;;3.81;100.00
57900;BME280;60605;53.716;19.940;2023-04-10T01:50:42;101312.64;;;3.81;100.00
57900;BME280;60605;53.716;19.940;2023-04-10T01:55:46;101317.04;;;3.81;100.00
57900;BME280;60605;53.716;19.940;2023-04-10T02:00:48;101322.17;;;3.81;100.00
57900;BME280;60605;53.716;19.940;2023-04-10T02:05:53;101318.50;;;3.81;100.00
57900;BME280;60605;53.716;19.940;2023-04-10T02:11:12;101318.95;;;3.79;100.00
57900;BME280;60605;53.716;19.940;2023-04-10T02:16:18;101320.48;;;3.77;100.00
57900;BME280;60605;53.716;19.940;2023-04-10T02:21:22;101322.84;;;3.76;100.00
57900;BME280;60605;53.716;19.940;2023-04-10T02:26:24;101320.85;;;3.76;100.00
57900;BME280;60605;53.716;19.940;2023-04-10T02:31:26;101320.55;;;3.79;100.00
57900;BME280;60605;53.716;19.940;2023-04-10T02:36:28;101313.55;;;3.80;100.00
57900;BME280;60605;53.716;19.940;2023-04-10T02:41:30;101313.45;;;3.82;100.00
57900;BME280;60605;53.716;19.940;2023-04-10T02:46:32;101316.53;;;3.84;100.00
57900;BME280;60605;53.716;19.940;2023-04-10T02:51:34;101314.21;;;3.85;100.00
57900;BME280;60605;53.716;19.940;2023-04-10T02:56:37;101317.30;;;3.83;100.00
57900;BME280;60605;53.716;19.940;2023-04-10T03:01:39;101316.30;;;3.79;100.00
57900;BME280;60605;53.716;19.940;2023-04-10T03:06:41;101316.30;;;3.73;100.00
57900;BME280;60605;53.716;19.940;2023-04-10T03:11:43;101320.80;;;3.64;100.00
57900;BME280;60605;53.716;19.940;2023-04-10T03:16:45;101322.71;;;3.55;100.00
57900;BME280;60605;53.716;19.940;2023-04-10T03:21:48;101324.45;;;3.46;100.00
57900;BME280;60605;53.716;19.940;2023-04-10T03:26:50;101327.28;;;3.36;100.00
57900;BME280;60605;53.716;19.940;2023-04-10T03:31:52;101331.00;;;3.26;100.00
57900;BME280;60605;53.716;19.940;2023-04-10T03:36:54;101336.89;;;3.15;100.00
57900;BME280;60605;53.716;19.940;2023-04-10T03:41:56;101332.96;;;3.05;100.00
57900;BME280;60605;53.716;19.940;2023-04-10T03:46:58;101338.39;;;2.96;100.00
57900;BME280;60605;53.716;19.940;2023-04-10T03:52:00;101340.59;;;2.88;100.00
57900;BME280;60605;53.716;19.940;2023-04-10T03:57:02;101338.34;;;2.80;100.00
57900;BME280;60605;53.716;19.940;2023-04-10T04:02:05;101337.06;;;2.74;100.00
57900;BME280;60605;53.716;19.940;2023-04-10T04:07:08;101341.10;;;2.71;100.00
57900;BME280;60605;53.716;19.940;2023-04-10T04:12:10;101346.84;;;2.69;100.00
57900;BME280;60605;53.716;19.940;2023-04-10T04:17:13;101350.69;;;2.70;100.00
57900;BME280;60605;53.716;19.940;2023-04-10T04:22:15;101360.40;;;2.83;100.00
57900;BME280;60605;53.716;19.940;2023-04-10T04:27:16;101362.45;;;3.19;100.00
57900;BME280;60605;53.716;19.940;2023-04-10T04:32:19;101364.92;;;3.75;100.00
57900;BME280;60605;53.716;19.940;2023-04-10T04:37:21;101373.09;;;4.40;100.00
57900;BME280;60605;53.716;19.940;2023-04-10T04:42:23;101377.78;;;5.20;100.00
57900;BME280;60605;53.716;19.940;2023-04-10T04:47:24;101377.45;;;6.08;100.00
57900;BME280;60605;53.716;19.940;2023-04-10T04:52:26;101383.95;;;6.98;100.00
57900;BME280;60605;53.716;19.940;2023-04-10T04:57:28;101387.29;;;7.83;99.85
57900;BME280;60605;53.716;19.940;2023-04-10T05:02:30;101397.88;;;8.53;97.57
57900;BME280;60605;53.716;19.940;2023-04-10T05:07:33;101405.83;;;9.27;94.27
57900;BME280;60605;53.716;19.940;2023-04-10T05:12:34;101409.45;;;10.03;91.25
57900;BME280;60605;53.716;19.940;2023-04-10T05:17:36;101411.54;;;10.98;88.33
57900;BME280;60605;53.716;19.940;2023-04-10T05:22:38;101414.55;;;11.96;84.36
57900;BME280;60605;53.716;19.940;2023-04-10T05:27:40;101420.15;;;12.97;80.98
57900;BME280;60605;53.716;19.940;2023-04-10T05:32:41;101419.89;;;14.04;78.05
57900;BME280;60605;53.716;19.940;2023-04-10T05:37:43;101418.75;;;15.08;73.59
57900;BME280;60605;53.716;19.940;2023-04-10T05:42:45;101423.54;;;15.96;69.42
57900;BME280;60605;53.716;19.940;2023-04-10T05:47:47;101426.55;;;16.76;66.63
57900;BME280;60605;53.716;19.940;2023-04-10T05:52:49;101432.86;;;17.55;63.81
57900;BME280;60605;53.716;19.940;2023-04-10T05:57:52;101434.92;;;18.46;61.45
57900;BME280;60605;53.716;19.940;2023-04-10T06:02:54;101434.64;;;19.41;57.27
57900;BME280;60605;53.716;19.940;2023-04-10T06:07:56;101434.90;;;20.14;54.59
57900;BME280;60605;53.716;19.940;2023-04-10T06:12:59;101435.17;;;20.80;51.92
57900;BME280;60605;53.716;19.940;2023-04-10T06:18:01;101436.71;;;21.21;49.51
57900;BME280;60605;53.716;19.940;2023-04-10T06:23:03;101436.36;;;21.87;48.53
57900;BME280;60605;53.716;19.940;2023-04-10T06:28:06;101426.52;;;22.77;47.38
57900;BME280;60605;53.716;19.940;2023-04-10T06:33:08;101428.48;;;23.76;45.43
57900;BME280;60605;53.716;19.940;2023-04-10T06:38:10;101431.34;;;24.59;43.60
57900;BME280;60605;53.716;19.940;2023-04-10T06:43:13;101436.23;;;25.37;40.50
57900;BME280;60605;53.716;19.940;2023-04-10T06:48:16;101438.55;;;25.85;39.06
57900;BME280;60605;53.716;19.940;2023-04-10T06:53:17;101439.44;;;26.31;37.51
57900;BME280;60605;53.716;19.940;2023-04-10T06:58:19;101438.61;;;26.98;36.97
57900;BME280;60605;53.716;19.940;2023-04-10T07:03:21;101441.13;;;28.00;36.70
57900;BME280;60605;53.716;19.940;2023-04-10T07:08:24;101440.56;;;28.91;34.32
57900;BME280;60605;53.716;19.940;2023-04-10T07:13:26;101440.61;;;29.37;32.30
57900;BME280;60605;53.716;19.940;2023-04-10T07:18:28;101442.17;;;29.88;31.62
57900;BME280;60605;53.716;19.940;2023-04-10T07:23:29;101441.60;;;30.15;30.23
57900;BME280;60605;53.716;19.940;2023-04-10T07:28:31;101439.94;;;30.42;29.88
57900;BME280;60605;53.716;19.940;2023-04-10T07:33:34;101430.15;;;30.80;29.28
57900;BME280;60605;53.716;19.940;2023-04-10T07:38:37;101429.46;;;31.21;28.70
57900;BME280;60605;53.716;19.940;2023-04-10T07:43:39;101429.18;;;31.65;28.55
57900;BME280;60605;53.716;19.940;2023-04-10T07:48:42;101430.20;;;31.96;27.34
57900;BME280;60605;53.716;19.940;2023-04-10T07:53:44;101429.95;;;32.50;27.99
57900;BME280;60605;53.716;19.940;2023-04-10T07:58:47;101427.40;;;33.13;26.43
57900;BME280;60605;53.716;19.940;2023-04-10T08:03:49;101423.75;;;33.28;25.92
57900;BME280;60605;53.716;19.940;2023-04-10T08:08:51;101426.51;;;33.65;25.81
57900;BME280;60605;53.716;19.940;2023-04-10T08:13:58;101420.77;;;34.12;25.40
57900;BME280;60605;53.716;19.940;2023-04-10T08:19:03;101421.27;;;34.55;23.77
57900;BME280;60605;53.716;19.940;2023-04-10T08:24:05;101416.85;;;34.63;23.59
57900;BME280;60605;53.716;19.940;2023-04-10T08:29:07;101410.55;;;35.19;24.24
57900;BME280;60605;53.716;19.940;2023-04-10T08:34:10;101406.98;;;35.62;24.12
57900;BME280;60605;53.716;19.940;2023-04-10T08:39:12;101401.09;;;35.97;23.85
57900;BME280;60605;53.716;19.940;2023-04-10T08:44:14;101400.81;;;36.91;23.02
57900;BME280;60605;53.716;19.940;2023-04-10T08:49:21;101401.35;;;36.86;22.48
57900;BME280;60605;53.716;19.940;2023-04-10T08:54:27;101397.18;;;35.62;23.21
57900;BME280;60605;53.716;19.940;2023-04-10T08:59:30;101390.64;;;35.66;23.04
57900;BME280;60605;53.716;19.940;2023-04-10T09:04:33;101386.55;;;36.04;22.92
57900;BME280;60605;53.716;19.940;2023-04-10T09:09:36;101380.58;;;36.47;22.35
57900;BME280;60605;53.716;19.940;2023-04-10T09:14:40;101373.02;;;36.33;21.35
57900;BME280;60605;53.716;19.940;2023-04-10T09:19:45;101372.56;;;36.32;22.35
57900;BME280;60605;53.716;19.940;2023-04-10T09:24:48;101368.44;;;36.67;21.43
57900;BME280;60605;53.716;19.940;2023-04-10T09:29:50;101359.27;;;36.84;21.87
57900;BME280;60605;53.716;19.940;2023-04-10T09:34:54;101354.77;;;37.04;21.29
57900;BME280;60605;53.716;19.940;2023-04-10T09:40:00;101352.16;;;37.37;21.51
57900;BME280;60605;53.716;19.940;2023-04-10T09:45:04;101346.81;;;37.57;21.02
57900;BME280;60605;53.716;19.940;2023-04-10T09:50:07;101336.89;;;37.37;20.30
57900;BME280;60605;53.716;19.940;2023-04-10T09:55:15;101330.89;;;36.91;21.06
57900;BME280;60605;53.716;19.940;2023-04-10T10:00:18;101324.69;;;37.15;21.86
57900;BME280;60605;53.716;19.940;2023-04-10T10:05:21;101320.05;;;37.44;21.26
57900;BME280;60605;53.716;19.940;2023-04-10T10:10:25;101304.48;;;36.96;21.16
57900;BME280;60605;53.716;19.940;2023-04-10T10:15:35;101293.77;;;35.57;21.21
57900;BME280;60605;53.716;19.940;2023-04-10T10:20:41;101280.76;;;32.67;24.33
57900;BME280;60605;53.716;19.940;2023-04-10T10:25:45;101269.07;;;29.82;26.93
57900;BME280;60605;53.716;19.940;2023-04-10T10:30:48;101259.23;;;27.62;28.90
57900;BME280;60605;53.716;19.940;2023-04-10T10:35:51;101253.09;;;25.79;31.62
57900;BME280;60605;53.716;19.940;2023-04-10T10:41:01;101250.41;;;24.31;33.69
57900;BME280;60605;53.716;19.940;2023-04-10T10:46:16;101242.33;;;23.24;35.91
57900;BME280;60605;53.716;19.940;2023-04-10T10:51:21;101240.48;;;22.57;37.50
57900;BME280;60605;53.716;19.940;2023-04-10T11:01:27;101228.72;;;21.64;39.68
57900;BME280;60605;53.716;19.940;2023-04-10T11:06:50;101225.43;;;21.23;40.53
57900;BME280;60605;53.716;19.940;2023-04-10T11:11:59;101220.27;;;20.89;40.88
57900;BME280;60605;53.716;19.940;2023-04-10T11:17:01;101216.13;;;20.66;41.78
57900;BME280;60605;53.716;19.940;2023-04-10T11:22:05;101214.36;;;20.61;42.00
57900;BME280;60605;53.716;19.940;2023-04-10T11:27:08;101203.98;;;20.58;42.39
57900;BME280;60605;53.716;19.940;2023-04-10T11:32:50;101194.56;;;20.48;42.60
57900;BME280;60605;53.716;19.940;2023-04-10T11:38:10;101189.00;;;20.42;42.51
57900;BME280;60605;53.716;19.940;2023-04-10T11:43:13;101181.33;;;20.44;43.03
57900;BME280;60605;53.716;19.940;2023-04-10T11:48:15;101173.42;;;20.28;41.78
57900;BME280;60605;53.716;19.940;2023-04-10T11:53:20;101181.08;;;19.70;41.78
57900;BME280;60605;53.716;19.940;2023-04-10T11:58:24;101176.19;;;19.43;42.20
57900;BME280;60605;53.716;19.940;2023-04-10T12:03:40;101170.27;;;19.23;43.81
57900;BME280;60605;53.716;19.940;2023-04-10T12:08:45;101167.96;;;19.55;45.24
57900;BME280;60605;53.716;19.940;2023-04-10T12:13:56;101162.21;;;19.95;45.10
57900;BME280;60605;53.716;19.940;2023-04-10T12:18:58;101155.93;;;20.24;44.39
57900;BME280;60605;53.716;19.940;2023-04-10T12:24:00;101152.64;;;20.37;43.96
57900;BME280;60605;53.716;19.940;2023-04-10T12:29:02;101143.98;;;20.51;43.31
57900;BME280;60605;53.716;19.940;2023-04-10T12:34:06;101141.33;;;20.53;42.67
57900;BME280;60605;53.716;19.940;2023-04-10T12:39:22;101136.07;;;20.52;43.76
57900;BME280;60605;53.716;19.940;2023-04-10T12:44:24;101125.94;;;20.62;43.28
57900;BME280;60605;53.716;19.940;2023-04-10T12:49:25;101120.13;;;20.74;43.14
57900;BME280;60605;53.716;19.940;2023-04-10T12:54:29;101112.19;;;20.63;41.54
57900;BME280;60605;53.716;19.940;2023-04-10T12:59:32;101107.15;;;20.56;42.77
57900;BME280;60605;53.716;19.940;2023-04-10T13:04:34;101103.41;;;20.50;42.94
57900;BME280;60605;53.716;19.940;2023-04-10T13:09:36;101093.45;;;20.43;43.03
57900;BME280;60605;53.716;19.940;2023-04-10T13:14:38;101087.59;;;20.42;43.34
57900;BME280;60605;53.716;19.940;2023-04-10T13:19:40;101081.73;;;20.43;42.90
57900;BME280;60605;53.716;19.940;2023-04-10T13:24:42;101073.64;;;20.28;43.40
57900;BME280;60605;53.716;19.940;2023-04-10T13:29:45;101071.25;;;20.28;43.88
57900;BME280;60605;53.716;19.940;2023-04-10T13:34:47;101064.55;;;20.29;43.59
57900;BME280;60605;53.716;19.940;2023-04-10T13:39:49;101059.52;;;20.01;43.01
57900;BME280;60605;53.716;19.940;2023-04-10T13:44:51;101057.81;;;19.62;43.98
57900;BME280;60605;53.716;19.940;2023-04-10T13:49:54;101048.19;;;19.35;44.85
57900;BME280;60605;53.716;19.940;2023-04-10T13:54:55;101040.55;;;19.24;45.47
57900;BME280;60605;53.716;19.940;2023-04-10T13:59:57;101035.27;;;19.21;45.99
57900;BME280;60605;53.716;19.940;2023-04-10T14:05:00;101029.14;;;19.23;45.37
57900;BME280;60605;53.716;19.940;2023-04-10T14:10:02;101026.30;;;19.19;44.92
57900;BME280;60605;53.716;19.940;2023-04-10T14:15:06;101020.83;;;19.05;45.03
57900;BME280;60605;53.716;19.940;2023-04-10T14:20:08;101020.65;;;18.94;45.25
57900;BME280;60605;53.716;19.940;2023-04-10T14:25:14;101013.58;;;18.96;45.51
57900;BME280;60605;53.716;19.940;2023-04-10T14:30:16;101002.17;;;18.99;45.21
57900;BME280;60605;53.716;19.940;2023-04-10T14:35:18;100997.45;;;18.94;44.86
57900;BME280;60605;53.716;19.940;2023-04-10T14:40:21;100993.61;;;18.85;45.12
57900;BME280;60605;53.716;19.940;2023-04-10T14:45:22;100984.77;;;18.81;45.35
57900;BME280;60605;53.716;19.940;2023-04-10T14:50:30;100977.79;;;18.77;45.79
57900;BME280;60605;53.716;19.940;2023-04-10T14:55:32;100972.45;;;18.75;46.05
57900;BME280;60605;53.716;19.940;2023-04-10T15:00:34;100968.13;;;18.71;45.85
57900;BME280;60605;53.716;19.940;2023-04-10T15:05:37;100966.48;;;18.65;45.45
57900;BME280;60605;53.716;19.940;2023-04-10T15:10:39;100962.66;;;18.53;44.86
57900;BME280;60605;53.716;19.940;2023-04-10T15:15:43;100959.75;;;18.36;44.28
57900;BME280;60605;53.716;19.940;2023-04-10T15:20:45;100956.33;;;18.21;43.72
57900;BME280;60605;53.716;19.940;2023-04-10T15:25:47;100946.64;;;18.08;43.74
57900;BME280;60605;53.716;19.940;2023-04-10T15:30:50;100945.43;;;18.03;44.51
57900;BME280;60605;53.716;19.940;2023-04-10T15:35:52;100943.03;;;18.02;45.42
57900;BME280;60605;53.716;19.940;2023-04-10T15:40:55;100936.85;;;18.00;45.83
57900;BME280;60605;53.716;19.940;2023-04-10T15:45:57;100931.55;;;17.94;46.14
57900;BME280;60605;53.716;19.940;2023-04-10T15:51:07;100922.90;;;17.85;46.54
57900;BME280;60605;53.716;19.940;2023-04-10T15:56:09;100917.70;;;17.75;46.98
57900;BME280;60605;53.716;19.940;2023-04-10T16:01:12;100915.14;;;17.64;47.19
57900;BME280;60605;53.716;19.940;2023-04-10T16:06:16;100911.58;;;17.52;46.05
57900;BME280;60605;53.716;19.940;2023-04-10T16:11:19;100907.61;;;17.42;47.17
57900;BME280;60605;53.716;19.940;2023-04-10T16:16:22;100899.70;;;17.33;47.82
57900;BME280;60605;53.716;19.940;2023-04-10T16:21:25;100891.42;;;17.21;48.37
57900;BME280;60605;53.716;19.940;2023-04-10T16:26:27;100881.86;;;17.07;49.03
57900;BME280;60605;53.716;19.940;2023-04-10T16:31:29;100878.48;;;16.93;49.73
57900;BME280;60605;53.716;19.940;2023-04-10T16:36:32;100871.09;;;16.77;50.03
57900;BME280;60605;53.716;19.940;2023-04-10T16:41:34;100870.67;;;16.60;50.22
57900;BME280;60605;53.716;19.940;2023-04-10T16:46:37;100864.52;;;16.39;50.30
57900;BME280;60605;53.716;19.940;2023-04-10T16:51:39;100858.02;;;16.21;49.82
57900;BME280;60605;53.716;19.940;2023-04-10T16:56:42;100852.77;;;16.04;49.53
57900;BME280;60605;53.716;19.940;2023-04-10T17:01:45;100851.73;;;15.89;49.69
57900;BME280;60605;53.716;19.940;2023-04-10T17:06:47;100852.05;;;15.72;49.95
57900;BME280;60605;53.716;19.940;2023-04-10T17:11:49;100847.04;;;15.49;50.58
57900;BME280;60605;53.716;19.940;2023-04-10T17:16:54;100842.52;;;15.24;51.18
57900;BME280;60605;53.716;19.940;2023-04-10T17:21:56;100840.55;;;14.94;51.72
57900;BME280;60605;53.716;19.940;2023-04-10T17:26:58;100839.02;;;14.68;52.39
57900;BME280;60605;53.716;19.940;2023-04-10T17:32:02;100842.56;;;14.42;53.09
57900;BME280;60605;53.716;19.940;2023-04-10T17:37:05;100844.81;;;14.14;54.19
57900;BME280;60605;53.716;19.940;2023-04-10T17:42:07;100846.58;;;13.82;56.31
57900;BME280;60605;53.716;19.940;2023-04-10T17:47:09;100851.55;;;13.45;58.42
57900;BME280;60605;53.716;19.940;2023-04-10T17:52:12;100845.19;;;13.07;60.08
57900;BME280;60605;53.716;19.940;2023-04-10T17:57:14;100848.73;;;12.72;61.22
57900;BME280;60605;53.716;19.940;2023-04-10T18:02:17;100850.24;;;12.41;62.73
57900;BME280;60605;53.716;19.940;2023-04-10T18:07:20;100851.63;;;12.12;63.64
57900;BME280;60605;53.716;19.940;2023-04-10T18:12:23;100853.41;;;11.89;64.71
57900;BME280;60605;53.716;19.940;2023-04-10T18:17:27;100853.17;;;11.72;65.77
57900;BME280;60605;53.716;19.940;2023-04-10T18:22:30;100848.79;;;11.73;66.44
57900;BME280;60605;53.716;19.940;2023-04-10T18:27:33;100854.05;;;11.82;66.55
57900;BME280;60605;53.716;19.940;2023-04-10T18:32:37;100852.79;;;11.89;66.48
57900;BME280;60605;53.716;19.940;2023-04-10T18:37:39;100853.07;;;11.90;66.29
57900;BME280;60605;53.716;19.940;2023-04-10T18:42:43;100854.41;;;11.87;66.38
57900;BME280;60605;53.716;19.940;2023-04-10T18:47:46;100858.73;;;11.83;66.79
57900;BME280;60605;53.716;19.940;2023-04-10T18:52:48;100864.31;;;11.77;67.14
57900;BME280;60605;53.716;19.940;2023-04-10T18:57:51;100861.77;;;11.71;67.75
57900;BME280;60605;53.716;19.940;2023-04-10T19:02:54;100857.63;;;11.61;68.77
57900;BME280;60605;53.716;19.940;2023-04-10T19:07:57;100852.02;;;11.47;70.96
57900;BME280;60605;53.716;19.940;2023-04-10T19:13:10;100849.58;;;11.28;72.47
57900;BME280;60605;53.716;19.940;2023-04-10T19:18:13;100843.96;;;11.07;73.43
57900;BME280;60605;53.716;19.940;2023-04-10T19:23:19;100843.81;;;10.86;73.64
57900;BME280;60605;53.716;19.940;2023-04-10T19:28:23;100841.98;;;10.63;74.48
57900;BME280;60605;53.716;19.940;2023-04-10T19:33:28;100837.05;;;10.41;75.43
57900;BME280;60605;53.716;19.940;2023-04-10T19:38:32;100833.16;;;10.19;76.75
57900;BME280;60605;53.716;19.940;2023-04-10T19:43:35;100828.70;;;9.99;77.72
57900;BME280;60605;53.716;19.940;2023-04-10T19:48:37;100820.48;;;9.79;78.38
57900;BME280;60605;53.716;19.940;2023-04-10T19:53:40;100817.55;;;9.60;78.93
57900;BME280;60605;53.716;19.940;2023-04-10T19:58:44;100813.00;;;9.40;79.79
57900;BME280;60605;53.716;19.940;2023-04-10T20:03:48;100811.42;;;9.24;80.76
57900;BME280;60605;53.716;19.940;2023-04-10T20:08:51;100802.14;;;9.09;81.54
57900;BME280;60605;53.716;19.940;2023-04-10T20:13:54;100792.10;;;9.02;82.28
57900;BME280;60605;53.716;19.940;2023-04-10T20:18:56;100784.89;;;8.96;82.55
57900;BME280;60605;53.716;19.940;2023-04-10T20:23:58;100780.30;;;8.92;82.90
57900;BME280;60605;53.716;19.940;2023-04-10T20:29:00;100779.06;;;8.87;83.39
57900;BME280;60605;53.716;19.940;2023-04-10T20:34:03;100774.11;;;8.87;83.77
57900;BME280;60605;53.716;19.940;2023-04-10T20:39:05;100770.57;;;8.85;83.69
57900;BME280;60605;53.716;19.940;2023-04-10T20:44:09;100769.27;;;8.79;83.68
57900;BME280;60605;53.716;19.940;2023-04-10T20:49:11;100763.21;;;8.66;83.70
57900;BME280;60605;53.716;19.940;2023-04-10T20:54:16;100758.12;;;8.49;84.68
57900;BME280;60605;53.716;19.940;2023-04-10T20:59:20;100753.89;;;8.36;85.92
57900;BME280;60605;53.716;19.940;2023-04-10T21:04:23;100746.95;;;8.27;86.55
57900;BME280;60605;53.716;19.940;2023-04-10T21:09:26;100746.58;;;8.21;87.50
57900;BME280;60605;53.716;19.940;2023-04-10T21:14:28;100742.27;;;8.15;87.89
57900;BME280;60605;53.716;19.940;2023-04-10T21:19:30;100739.98;;;8.04;88.25
57900;BME280;60605;53.716;19.940;2023-04-10T21:24:32;100742.72;;;7.92;88.65
57900;BME280;60605;53.716;19.940;2023-04-10T21:29:34;100734.38;;;7.81;89.45
57900;BME280;60605;53.716;19.940;2023-04-10T21:34:36;100728.40;;;7.76;90.13
57900;BME280;60605;53.716;19.940;2023-04-10T21:39:39;100722.96;;;7.71;90.42
57900;BME280;60605;53.716;19.940;2023-04-10T21:44:44;100717.83;;;7.66;91.07
57900;BME280;60605;53.716;19.940;2023-04-10T21:49:46;100714.77;;;7.67;91.79
57900;BME280;60605;53.716;19.940;2023-04-10T21:54:49;100711.32;;;7.70;92.18
57900;BME280;60605;53.716;19.940;2023-04-10T21:59:50;100711.27;;;7.70;92.12
57900;BME280;60605;53.716;19.940;2023-04-10T22:04:52;100705.14;;;7.65;91.86
57900;BME280;60605;53.716;19.940;2023-04-10T22:09:56;100696.59;;;7.56;92.11
57900;BME280;60605;53.716;19.940;2023-04-10T22:14:58;100692.82;;;7.48;92.84
57900;BME280;60605;53.716;19.940;2023-04-10T22:20:00;100691.80;;;7.39;93.05
57900;BME280;60605;53.716;19.940;2023-04-10T22:25:03;100694.91;;;7.29;93.52
57900;BME280;60605;53.716;19.940;2023-04-10T22:30:06;100690.73;;;7.19;94.03
57900;BME280;60605;53.716;19.940;2023-04-10T22:35:10;100688.42;;;7.07;94.27
57900;BME280;60605;53.716;19.940;2023-04-10T22:40:12;100684.44;;;6.95;94.61
57900;BME280;60605;53.716;19.940;2023-04-10T22:45:14;100678.40;;;6.81;94.85
57900;BME280;60605;53.716;19.940;2023-04-10T22:50:16;100677.29;;;6.71;96.03
57900;BME280;60605;53.716;19.940;2023-04-10T22:55:18;100666.34;;;6.63;97.04
57900;BME280;60605;53.716;19.940;2023-04-10T23:00:20;100653.92;;;6.54;97.18
57900;BME280;60605;53.716;19.940;2023-04-10T23:05:22;100641.21;;;6.44;97.62
57900;BME280;60605;53.716;19.940;2023-04-10T23:10:24;100633.69;;;6.36;98.21
57900;BME280;60605;53.716;19.940;2023-04-10T23:15:26;100627.77;;;6.30;98.97
57900;BME280;60605;53.716;19.940;2023-04-10T23:20:28;100619.39;;;6.26;99.68
57900;BME280;60605;53.716;19.940;2023-04-10T23:25:30;100611.34;;;6.22;100.00
57900;BME280;60605;53.716;19.940;2023-04-10T23:30:32;100601.84;;;6.17;100.00
57900;BME280;60605;53.716;19.940;2023-04-10T23:35:34;100594.09;;;6.12;100.00
57900;BME280;60605;53.716;19.940;2023-04-10T23:40:36;100587.52;;;6.07;100.00
57900;BME280;60605;53.716;19.940;2023-04-10T23:45:38;100584.07;;;6.03;100.00
57900;BME280;60605;53.716;19.940;2023-04-10T23:50:40;100570.80;;;6.03;100.00
57900;BME280;60605;53.716;19.940;2023-04-10T23:55:42;100564.81;;;6.03;100.00
